Time;durP1;ratioP1;P1;durP2;ratioP2;P2;SDS_P1;SDS_P2;PMS_P1;PMS_P2;Temp;Humidity;BMP_temperature;BMP_pressure;BME280_temperature;BME280_humidity;BME280_pressure;Samples;Min_cycle;Max_cycle;Signal;HPM_P1;HPM_P2
2022/02/28 00:02:15;;;;;;;7.70;3.00;;;6.00;99.90;;;;;;5034452;28;20168;-79
2022/02/28 00:04:41;;;;;;;5.20;4.07;;;6.20;99.90;;;;;;5034572;28;20283;-81
2022/02/28 00:07:07;;;;;;;6.13;3.53;;;6.30;99.90;;;;;;5034569;28;20191;-77
2022/02/28 00:09:32;;;;;;;8.65;3.85;;;6.30;99.90;;;;;;5034134;28;20255;-79
2022/02/28 00:11:58;;;;;;;3.25;2.75;;;6.30;99.90;;;;;;5034262;28;20175;-78
2022/02/28 00:14:23;;;;;;;4.55;3.55;;;6.20;99.90;;;;;;5032741;28;20191;-78
2022/02/28 00:16:49;;;;;;;8.25;4.30;;;5.70;99.90;;;;;;5033095;28;20657;-77
2022/02/28 00:19:15;;;;;;;7.72;3.25;;;5.50;99.90;;;;;;5034684;28;20259;-77
2022/02/28 00:21:41;;;;;;;6.93;3.58;;;5.40;99.90;;;;;;5034680;28;20160;-77
2022/02/28 00:24:07;;;;;;;8.63;3.47;;;5.30;99.90;;;;;;5034373;28;20182;-77
2022/02/28 00:26:32;;;;;;;4.18;3.00;;;5.50;99.90;;;;;;5033977;28;20727;-79
2022/02/28 00:28:58;;;;;;;3.50;2.72;;;5.70;99.90;;;;;;5033782;28;20286;-79
2022/02/28 00:31:23;;;;;;;6.43;3.35;;;5.80;99.90;;;;;;5033192;28;20691;-77
2022/02/28 00:33:49;;;;;;;2.85;2.40;;;5.90;99.90;;;;;;5032652;28;20771;-77
2022/02/28 00:36:15;;;;;;;3.53;2.95;;;5.90;99.90;;;;;;5033439;28;20180;-77
2022/02/28 00:38:40;;;;;;;6.97;3.05;;;5.90;99.90;;;;;;5033496;28;20168;-78
2022/02/28 00:41:06;;;;;;;8.52;3.38;;;6.00;99.90;;;;;;5033815;28;20217;-77
2022/02/28 00:43:32;;;;;;;9.10;3.28;;;5.70;99.90;;;;;;5032411;28;20164;-76
2022/02/28 00:45:57;;;;;;;4.72;2.38;;;5.60;99.90;;;;;;5032543;28;20257;-77
2022/02/28 00:48:23;;;;;;;2.63;2.20;;;5.40;99.90;;;;;;5033714;28;20208;-77
2022/02/28 00:50:49;;;;;;;3.42;2.28;;;5.30;99.90;;;;;;5033782;28;20199;-78
2022/02/28 00:53:15;;;;;;;5.22;2.13;;;5.40;99.90;;;;;;5033683;28;20214;-77
2022/02/28 00:55:40;;;;;;;3.45;2.13;;;5.50;99.90;;;;;;5033110;28;20180;-80
2022/02/28 00:58:07;;;;;;;5.40;2.05;;;5.50;99.90;;;;;;5033495;28;20532;-77
2022/02/28 01:00:34;;;;;;;2.60;2.08;;;5.60;99.90;;;;;;5033162;28;20172;-79
2022/02/28 01:02:59;;;;;;;3.33;2.50;;;5.60;99.90;;;;;;5033375;28;20217;-80
2022/02/28 01:05:25;;;;;;;8.40;3.08;;;5.60;99.90;;;;;;5033083;28;20180;-81
2022/02/28 01:07:51;;;;;;;6.18;3.05;;;5.50;99.90;;;;;;5033081;28;20192;-78
2022/02/28 01:10:19;;;;;;;4.95;2.25;;;5.60;99.90;;;;;;5033514;28;20697;-78
2022/02/28 01:12:44;;;;;;;4.60;2.22;;;5.50;99.90;;;;;;5033061;28;20214;-78
2022/02/28 01:15:12;;;;;;;2.75;2.20;;;5.70;99.90;;;;;;5033215;28;20270;-80
2022/02/28 01:17:38;;;;;;;4.15;2.50;;;5.60;99.90;;;;;;5032858;28;20656;-81
2022/02/28 01:20:06;;;;;;;3.65;2.10;;;5.60;99.90;;;;;;5032954;28;20176;-81
2022/02/28 01:22:32;;;;;;;5.63;2.35;;;5.70;99.90;;;;;;5031678;28;20172;-77
2022/02/28 01:24:57;;;;;;;3.95;2.47;;;5.60;99.90;;;;;;5031705;28;20192;-77
2022/02/28 01:27:23;;;;;;;5.55;2.15;;;5.50;99.90;;;;;;5033051;28;20290;-78
2022/02/28 01:29:49;;;;;;;2.17;1.98;;;5.50;99.90;;;;;;5033032;28;20171;-78
2022/02/28 01:32:15;;;;;;;2.67;2.10;;;5.40;99.90;;;;;;5031408;28;20680;-77
2022/02/28 01:34:41;;;;;;;3.80;2.38;;;5.40;99.90;;;;;;5032259;28;20188;-78
2022/02/28 01:37:07;;;;;;;3.75;2.65;;;5.40;99.90;;;;;;5032635;28;20432;-77
2022/02/28 01:39:33;;;;;;;1.95;1.73;;;5.50;99.90;;;;;;5031415;28;20172;-78
2022/02/28 01:41:59;;;;;;;8.60;2.60;;;5.60;99.90;;;;;;5030772;28;20163;-78
2022/02/28 01:44:24;;;;;;;3.00;2.38;;;5.50;99.90;;;;;;5032563;28;20661;-81
2022/02/28 01:46:50;;;;;;;16.52;2.20;;;5.30;99.90;;;;;;5032592;28;20178;-82
2022/02/28 01:49:16;;;;;;;2.08;1.73;;;5.40;99.90;;;;;;5032945;28;20629;-81
2022/02/28 01:51:41;;;;;;;2.60;2.08;;;5.40;99.90;;;;;;5032665;28;20625;-79
2022/02/28 01:54:08;;;;;;;3.05;2.00;;;5.60;99.90;;;;;;5032669;28;20167;-80
2022/02/28 01:56:34;;;;;;;3.85;2.53;;;5.70;99.90;;;;;;5032649;28;20194;-80
2022/02/28 01:59:00;;;;;;;3.17;2.22;;;5.70;99.90;;;;;;5031544;28;20167;-81
2022/02/28 02:01:26;;;;;;;4.32;2.17;;;5.60;99.90;;;;;;5032407;28;20175;-78
2022/02/28 02:03:51;;;;;;;1.98;1.67;;;5.60;99.90;;;;;;5033305;28;20519;-77
2022/02/28 02:06:20;;;;;;;3.72;2.10;;;5.50;99.90;;;;;;5032744;28;20172;-77
2022/02/28 02:08:46;;;;;;;5.70;2.58;;;5.50;99.90;;;;;;5031326;28;20290;-78
2022/02/28 02:11:12;;;;;;;3.78;1.95;;;5.50;99.90;;;;;;5032653;28;20168;-77
2022/02/28 02:13:38;;;;;;;2.47;2.15;;;5.50;99.90;;;;;;5032877;28;20519;-77
2022/02/28 02:16:05;;;;;;;6.90;1.90;;;5.40;99.90;;;;;;5032218;28;20201;-76
2022/02/28 02:18:30;;;;;;;2.67;2.42;;;5.40;99.90;;;;;;5032135;28;20180;-77
2022/02/28 02:20:56;;;;;;;2.97;2.40;;;5.50;99.90;;;;;;5032514;28;20259;-76
2022/02/28 02:23:22;;;;;;;2.70;2.30;;;5.40;99.90;;;;;;5032394;28;20220;-82
2022/02/28 02:25:48;;;;;;;5.80;2.13;;;5.40;99.90;;;;;;5030988;28;20183;-81
2022/02/28 02:28:16;;;;;;;7.88;2.42;;;5.50;99.90;;;;;;5032469;28;20601;-81
2022/02/28 02:30:50;;;;;;;6.82;2.10;;;5.50;99.90;;;;;;5032545;28;20195;-79
2022/02/28 02:33:17;;;;;;;3.85;1.98;;;5.70;99.90;;;;;;5032428;28;20628;-77
2022/02/28 02:35:52;;;;;;;7.78;2.72;;;5.70;99.90;;;;;;5032467;28;20715;-77
2022/02/28 02:38:18;;;;;;;3.25;2.55;;;5.70;99.90;;;;;;5032209;28;20176;-79
2022/02/28 02:40:44;;;;;;;2.83;2.35;;;5.60;99.90;;;;;;5032434;28;20218;-78
2022/02/28 02:43:09;;;;;;;2.28;2.08;;;5.60;99.90;;;;;;5031147;28;20557;-81
2022/02/28 02:45:35;;;;;;;2.80;2.15;;;5.70;99.90;;;;;;5031986;28;20192;-81
2022/02/28 02:48:11;;;;;;;4.00;2.78;;;5.60;99.90;;;;;;5032063;28;20672;-77
2022/02/28 02:50:36;;;;;;;2.85;2.45;;;5.50;99.90;;;;;;5032148;28;20585;-78
2022/02/28 02:53:02;;;;;;;4.72;2.53;;;5.70;99.90;;;;;;5033218;28;20199;-77
2022/02/28 02:55:27;;;;;;;2.67;1.90;;;5.60;99.90;;;;;;5035624;28;20241;-82
2022/02/28 02:57:53;;;;;;;3.85;2.05;;;5.60;99.90;;;;;;5035589;28;20168;-82
2022/02/28 03:00:19;;;;;;;3.22;2.55;;;5.40;99.90;;;;;;5034499;28;20226;-78
2022/02/28 03:02:44;;;;;;;4.47;2.03;;;5.40;99.90;;;;;;5035572;28;20176;-77
2022/02/28 03:05:10;;;;;;;3.10;2.10;;;5.40;99.90;;;;;;5035648;28;20751;-77
2022/02/28 03:07:35;;;;;;;4.30;3.25;;;5.40;99.90;;;;;;5035241;28;20200;-78
2022/02/28 03:10:01;;;;;;;3.60;2.20;;;5.40;99.90;;;;;;5035126;28;20522;-80
2022/02/28 03:12:26;;;;;;;6.03;2.15;;;5.40;99.90;;;;;;5035576;28;20164;-78
2022/02/28 03:14:52;;;;;;;2.80;2.42;;;5.30;99.90;;;;;;5035306;28;20187;-78
2022/02/28 03:17:18;;;;;;;2.60;2.08;;;5.30;99.90;;;;;;5035181;28;20659;-83
2022/02/28 03:19:43;;;;;;;4.05;2.33;;;5.30;99.90;;;;;;5033915;28;20172;-78
2022/02/28 03:22:09;;;;;;;3.75;2.60;;;5.30;99.90;;;;;;5035014;28;20187;-80
2022/02/28 03:24:34;;;;;;;3.63;2.70;;;5.30;99.90;;;;;;5035101;28;20536;-77
2022/02/28 03:27:00;;;;;;;2.22;2.03;;;5.10;99.90;;;;;;5035386;28;20222;-76
2022/02/28 03:29:26;;;;;;;3.03;2.10;;;5.10;99.90;;;;;;5035233;28;20198;-77
2022/02/28 03:31:51;;;;;;;8.38;2.70;;;5.00;99.90;;;;;;5035015;28;20176;-76
2022/02/28 03:34:17;;;;;;;7.00;2.67;;;5.20;99.90;;;;;;5033657;28;20254;-77
2022/02/28 03:36:43;;;;;;;6.13;2.10;;;4.90;99.90;;;;;;5035069;28;20164;-78
2022/02/28 03:39:08;;;;;;;2.53;2.33;;;4.80;99.90;;;;;;5034973;28;20167;-77
2022/02/28 03:41:34;;;;;;;2.85;2.65;;;4.90;99.90;;;;;;5033833;28;20176;-77
2022/02/28 03:43:59;;;;;;;3.25;2.25;;;4.90;99.90;;;;;;5034762;28;20168;-77
2022/02/28 03:46:25;;;;;;;4.68;3.10;;;4.80;99.90;;;;;;5034717;28;20167;-77
2022/02/28 03:48:50;;;;;;;5.63;2.85;;;4.90;99.90;;;;;;5034537;28;20204;-77
2022/02/28 03:51:16;;;;;;;2.63;2.42;;;4.90;99.90;;;;;;5034563;28;20255;-78
2022/02/28 03:53:42;;;;;;;7.40;2.65;;;4.90;99.90;;;;;;5034530;28;20163;-77
2022/02/28 03:56:07;;;;;;;4.18;2.63;;;5.20;99.90;;;;;;5034397;28;20318;-76
2022/02/28 03:58:38;;;;;;;3.22;2.60;;;5.30;99.90;;;;;;5034488;28;20633;-78
2022/02/28 04:01:04;;;;;;;3.47;2.88;;;5.30;99.90;;;;;;5034708;28;20180;-82
2022/02/28 04:03:30;;;;;;;4.80;2.80;;;5.30;99.90;;;;;;5034705;28;20200;-78
2022/02/28 04:05:56;;;;;;;3.10;2.78;;;5.30;99.90;;;;;;5033548;28;20269;-78
2022/02/28 04:08:21;;;;;;;3.22;2.92;;;5.20;99.90;;;;;;5034516;28;20215;-78
2022/02/28 04:10:47;;;;;;;5.53;3.05;;;5.30;99.90;;;;;;5034870;28;20171;-78
2022/02/28 04:13:12;;;;;;;4.55;3.08;;;5.00;99.90;;;;;;5034658;28;20254;-79
2022/02/28 04:15:38;;;;;;;5.55;2.97;;;5.00;99.90;;;;;;5034445;28;20672;-79
2022/02/28 04:18:04;;;;;;;3.33;3.03;;;4.90;99.90;;;;;;5034437;28;20187;-79
2022/02/28 04:20:30;;;;;;;5.57;3.33;;;5.00;99.90;;;;;;5033362;28;20217;-78
2022/02/28 04:22:56;;;;;;;3.10;2.80;;;5.00;99.90;;;;;;5034528;28;20176;-80
2022/02/28 04:25:21;;;;;;;5.32;3.13;;;5.00;99.90;;;;;;5034628;28;20648;-79
2022/02/28 04:27:47;;;;;;;3.38;3.08;;;5.00;99.90;;;;;;5033062;28;20273;-77
2022/02/28 04:30:13;;;;;;;7.25;3.35;;;4.90;99.90;;;;;;5034262;28;20568;-78
2022/02/28 04:32:38;;;;;;;5.53;3.47;;;5.00;99.90;;;;;;5034137;28;20164;-77
2022/02/28 04:35:04;;;;;;;4.07;2.80;;;5.00;99.90;;;;;;5034306;28;20713;-78
2022/02/28 04:37:30;;;;;;;4.60;2.78;;;5.10;99.90;;;;;;5033808;28;20172;-77
2022/02/28 04:39:56;;;;;;;3.90;2.83;;;5.10;99.90;;;;;;5033762;28;20214;-77
2022/02/28 04:42:21;;;;;;;4.97;3.15;;;5.00;99.90;;;;;;5033873;28;20164;-77
2022/02/28 04:44:48;;;;;;;3.30;3.00;;;5.00;99.90;;;;;;5033799;28;20717;-77
2022/02/28 04:47:13;;;;;;;3.08;2.63;;;5.10;99.90;;;;;;5033881;28;20195;-79
2022/02/28 04:49:39;;;;;;;6.85;3.10;;;5.00;99.90;;;;;;5032475;28;20167;-79
2022/02/28 04:52:05;;;;;;;10.50;3.08;;;4.90;99.90;;;;;;5033803;28;20237;-77
2022/02/28 04:54:30;;;;;;;5.15;2.70;;;5.00;99.90;;;;;;5033686;28;20564;-78
2022/02/28 04:56:56;;;;;;;5.45;2.90;;;5.10;99.90;;;;;;5033724;28;20164;-77
2022/02/28 04:59:22;;;;;;;4.88;3.38;;;5.20;99.90;;;;;;5033846;28;20537;-78
2022/02/28 05:01:48;;;;;;;5.40;2.47;;;5.10;99.90;;;;;;5033542;28;20171;-77
2022/02/28 05:04:13;;;;;;;6.75;3.40;;;4.90;99.90;;;;;;5031910;28;20199;-77
2022/02/28 05:06:39;;;;;;;3.50;3.13;;;4.90;99.90;;;;;;5031994;28;20167;-78
2022/02/28 05:09:04;;;;;;;3.47;3.03;;;4.90;99.90;;;;;;5033016;28;20207;-77
2022/02/28 05:11:30;;;;;;;4.43;2.78;;;4.70;99.90;;;;;;5033244;28;20198;-77
2022/02/28 05:13:56;;;;;;;9.13;3.25;;;4.40;99.90;;;;;;5033419;28;20188;-77
2022/02/28 05:16:21;;;;;;;10.45;3.70;;;4.30;99.90;;;;;;5033635;28;20659;-77
2022/02/28 05:18:47;;;;;;;4.47;3.15;;;4.20;99.90;;;;;;5033520;28;20183;-77
2022/02/28 05:21:14;;;;;;;4.88;3.95;;;4.10;99.90;;;;;;5033412;28;20694;-78
2022/02/28 05:23:39;;;;;;;5.32;2.92;;;4.30;99.90;;;;;;5031578;28;20225;-76
2022/02/28 05:26:05;;;;;;;3.95;3.25;;;4.30;99.90;;;;;;5033013;28;20262;-78
2022/02/28 05:28:31;;;;;;;6.00;3.28;;;4.20;99.90;;;;;;5033339;28;20208;-78
2022/02/28 05:30:57;;;;;;;6.25;3.10;;;4.20;99.90;;;;;;5031910;28;20633;-79
2022/02/28 05:33:22;;;;;;;10.40;2.85;;;4.20;99.90;;;;;;5033198;28;20201;-79
2022/02/28 05:35:48;;;;;;;6.25;2.45;;;4.40;99.90;;;;;;5031658;28;20191;-78
2022/02/28 05:38:14;;;;;;;3.28;2.97;;;4.30;99.90;;;;;;5033047;28;20305;-77
2022/02/28 05:40:39;;;;;;;3.55;2.97;;;4.30;99.90;;;;;;5033067;28;20199;-78
2022/02/28 05:43:05;;;;;;;6.20;3.63;;;4.40;99.90;;;;;;5032998;28;20182;-79
2022/02/28 05:45:35;;;;;;;4.68;2.83;;;4.40;99.90;;;;;;5032937;28;20234;-78
2022/02/28 05:48:02;;;;;;;23.60;3.60;;;4.40;99.90;;;;;;5032813;28;20214;-78
2022/02/28 05:50:28;;;;;;;3.67;3.30;;;4.50;99.90;;;;;;5032415;28;20168;-78
2022/02/28 05:52:54;;;;;;;8.50;3.88;;;4.20;99.90;;;;;;5032633;28;20164;-80
2022/02/28 05:55:19;;;;;;;4.78;3.70;;;4.30;99.90;;;;;;5032668;28;20188;-77
2022/02/28 05:57:45;;;;;;;3.80;2.90;;;4.40;99.90;;;;;;5032264;28;20620;-78
2022/02/28 06:00:11;;;;;;;3.53;2.85;;;4.30;99.90;;;;;;5032486;28;20172;-78
2022/02/28 06:02:37;;;;;;;5.32;3.28;;;4.60;99.90;;;;;;5032452;28;20168;-78
2022/02/28 06:05:03;;;;;;;6.28;3.70;;;4.50;99.90;;;;;;5032922;28;20183;-78
2022/02/28 06:07:28;;;;;;;4.57;4.03;;;4.50;99.90;;;;;;5032308;28;20545;-77
2022/02/28 06:09:54;;;;;;;8.82;3.30;;;4.50;99.90;;;;;;5032250;28;20176;-79
2022/02/28 06:12:19;;;;;;;4.90;3.45;;;4.50;99.90;;;;;;5032613;28;20164;-77
2022/02/28 06:14:45;;;;;;;5.68;3.60;;;4.40;99.90;;;;;;5032244;28;20519;-79
2022/02/28 06:17:11;;;;;;;4.28;3.25;;;4.50;99.90;;;;;;5032028;28;20183;-78
2022/02/28 06:19:36;;;;;;;4.57;3.50;;;4.40;99.90;;;;;;5032047;28;20661;-80
2022/02/28 06:22:02;;;;;;;8.00;2.85;;;4.30;99.90;;;;;;5032547;28;20172;-78
2022/02/28 06:24:27;;;;;;;5.95;3.78;;;4.40;99.90;;;;;;5032807;28;20190;-77
2022/02/28 06:26:53;;;;;;;7.63;4.78;;;4.40;99.90;;;;;;5032833;28;20188;-79
2022/02/28 06:29:19;;;;;;;10.52;3.78;;;4.30;99.90;;;;;;5035757;28;20253;-82
2022/02/28 06:31:45;;;;;;;6.30;3.47;;;4.40;99.90;;;;;;5036263;28;20164;-82
2022/02/28 06:34:12;;;;;;;4.65;3.33;;;4.40;99.90;;;;;;5036400;28;20178;-79
2022/02/28 06:36:38;;;;;;;7.43;3.63;;;4.40;99.90;;;;;;5036382;28;20167;-80
2022/02/28 06:39:05;;;;;;;12.68;3.80;;;4.40;99.90;;;;;;5036302;28;20168;-80
2022/02/28 06:41:30;;;;;;;4.45;3.50;;;4.60;99.90;;;;;;5036434;28;20640;-82
2022/02/28 06:43:56;;;;;;;5.25;3.60;;;4.70;99.90;;;;;;5036222;28;20159;-78
2022/02/28 06:46:22;;;;;;;9.73;3.25;;;4.80;99.90;;;;;;5035945;28;20643;-81
2022/02/28 06:48:47;;;;;;;9.18;3.78;;;4.80;99.90;;;;;;5036013;28;20199;-79
2022/02/28 06:51:14;;;;;;;17.45;3.80;;;4.80;99.90;;;;;;5036448;28;20168;-81
2022/02/28 06:53:40;;;;;;;8.52;3.38;;;4.70;99.90;;;;;;5036037;28;20168;-79
2022/02/28 06:56:06;;;;;;;10.20;3.65;;;4.60;99.90;;;;;;5036047;28;20184;-80
2022/02/28 06:58:32;;;;;;;43.20;7.03;;;4.60;99.90;;;;;;5035655;28;20221;-80
2022/02/28 07:00:57;;;;;;;12.45;4.03;;;4.60;99.90;;;;;;5035417;28;20205;-79
2022/02/28 07:03:23;;;;;;;10.52;3.90;;;4.60;99.90;;;;;;5036155;28;20172;-81
2022/02/28 07:05:52;;;;;;;6.07;4.15;;;4.80;99.90;;;;;;5036351;28;20184;-79
2022/02/28 07:08:19;;;;;;;6.95;4.05;;;4.80;99.90;;;;;;5034461;28;20255;-78
2022/02/28 07:10:45;;;;;;;9.43;3.42;;;4.70;99.90;;;;;;5034049;28;20573;-79
2022/02/28 07:13:12;;;;;;;5.93;3.88;;;4.60;99.90;;;;;;5035664;28;20191;-81
2022/02/28 07:15:42;;;;;;;4.35;3.35;;;4.60;99.90;;;;;;5035726;28;20263;-79
2022/02/28 07:18:07;;;;;;;11.50;4.60;;;4.70;99.90;;;;;;5035462;28;20185;-79
2022/02/28 07:20:34;;;;;;;5.07;4.35;;;4.60;99.90;;;;;;5035300;28;20164;-78
2022/02/28 07:22:59;;;;;;;8.10;3.80;;;4.70;99.90;;;;;;5035570;28;20156;-81
2022/02/28 07:25:25;;;;;;;17.33;4.63;;;4.80;99.90;;;;;;5034928;28;20199;-82
2022/02/28 07:27:51;;;;;;;10.95;4.10;;;4.90;99.90;;;;;;5033437;28;20295;-79
2022/02/28 07:30:16;;;;;;;6.78;4.43;;;5.00;99.90;;;;;;5034955;28;20187;-80
2022/02/28 07:32:43;;;;;;;4.05;3.65;;;5.00;99.90;;;;;;5035091;28;20202;-78
2022/02/28 07:35:10;;;;;;;5.47;4.45;;;4.90;99.90;;;;;;5035578;28;20191;-77
2022/02/28 07:37:35;;;;;;;9.80;4.28;;;4.70;99.90;;;;;;5034814;28;20219;-79
2022/02/28 07:40:05;;;;;;;11.05;4.38;;;4.70;99.90;;;;;;5033891;28;20658;-78
2022/02/28 07:42:31;;;;;;;4.05;3.33;;;4.90;99.90;;;;;;5035521;28;20195;-81
2022/02/28 07:44:57;;;;;;;7.30;4.03;;;4.80;99.90;;;;;;5035193;28;20230;-81
2022/02/28 07:47:22;;;;;;;9.95;4.63;;;4.90;99.90;;;;;;5034724;28;20598;-77
2022/02/28 07:49:48;;;;;;;8.50;3.92;;;5.10;99.90;;;;;;5035024;28;20701;-82
2022/02/28 07:52:14;;;;;;;8.10;4.47;;;5.20;99.90;;;;;;5034898;28;20620;-81
2022/02/28 07:54:39;;;;;;;11.93;4.35;;;5.20;99.90;;;;;;5034775;28;20644;-81
2022/02/28 07:57:05;;;;;;;5.85;3.78;;;5.30;99.90;;;;;;5034992;28;20183;-80
2022/02/28 07:59:31;;;;;;;6.32;4.20;;;5.30;99.90;;;;;;5035015;28;20164;-80
2022/02/28 08:01:56;;;;;;;17.13;4.45;;;5.40;99.90;;;;;;5035261;28;20682;-83
2022/02/28 08:04:22;;;;;;;5.28;4.70;;;5.50;99.90;;;;;;5033887;28;20734;-82
2022/02/28 08:06:48;;;;;;;8.65;3.72;;;5.50;99.90;;;;;;5035090;28;20176;-78
2022/02/28 08:09:13;;;;;;;5.22;3.33;;;5.50;99.90;;;;;;5034996;28;20273;-80
2022/02/28 08:11:39;;;;;;;7.78;4.82;;;5.50;99.90;;;;;;5035465;28;20164;-79
2022/02/28 08:14:05;;;;;;;8.32;3.38;;;5.80;99.90;;;;;;5035094;28;20168;-82
2022/02/28 08:16:31;;;;;;;5.95;3.88;;;5.80;99.90;;;;;;5032229;28;20167;-83
2022/02/28 08:18:56;;;;;;;10.27;4.75;;;5.70;99.90;;;;;;5033764;28;20195;-82
2022/02/28 08:21:22;;;;;;;4.82;4.40;;;5.70;99.90;;;;;;5034471;28;20200;-83
2022/02/28 08:23:48;;;;;;;7.57;4.38;;;6.00;99.90;;;;;;5031968;28;20227;-78
2022/02/28 08:26:13;;;;;;;5.32;4.03;;;6.20;99.90;;;;;;5032654;28;20215;-81
2022/02/28 08:28:39;;;;;;;6.10;4.82;;;6.20;99.90;;;;;;5033672;28;20215;-78
2022/02/28 08:31:04;;;;;;;9.18;4.97;;;6.20;99.90;;;;;;5033787;28;20176;-82
2022/02/28 08:33:30;;;;;;;8.30;4.63;;;6.30;99.90;;;;;;5034032;28;20180;-80
2022/02/28 08:35:56;;;;;;;7.28;4.22;;;6.50;99.90;;;;;;5034103;28;20191;-89
2022/02/28 08:38:22;;;;;;;13.90;4.90;;;6.50;99.90;;;;;;5034751;28;20223;-82
2022/02/28 08:40:47;;;;;;;7.95;4.15;;;6.60;99.90;;;;;;5034324;28;20164;-82
2022/02/28 08:43:13;;;;;;;7.88;4.97;;;6.70;99.90;;;;;;5033807;28;20536;-80
2022/02/28 08:45:39;;;;;;;5.47;4.28;;;6.60;99.90;;;;;;5032026;28;20202;-80
2022/02/28 08:48:05;;;;;;;16.05;4.03;;;6.70;99.90;;;;;;5032396;28;20253;-80
2022/02/28 08:50:30;;;;;;;5.28;3.95;;;6.90;99.90;;;;;;5032896;28;20230;-80
2022/02/28 08:52:56;;;;;;;10.70;4.38;;;6.90;99.90;;;;;;5033048;28;20214;-79
2022/02/28 08:55:21;;;;;;;9.80;4.93;;;6.90;99.90;;;;;;5032491;28;20191;-78
2022/02/28 08:57:47;;;;;;;4.10;3.70;;;6.80;99.90;;;;;;5032753;28;20176;-78
2022/02/28 09:00:13;;;;;;;6.70;4.40;;;6.90;99.90;;;;;;5032950;28;20624;-78
2022/02/28 09:02:40;;;;;;;8.63;4.75;;;7.00;99.90;;;;;;5032655;28;20159;-78
2022/02/28 09:05:07;;;;;;;5.68;4.53;;;7.00;99.90;;;;;;5030053;28;20195;-79
2022/02/28 09:07:33;;;;;;;5.82;4.25;;;7.30;99.90;;;;;;5030695;28;20290;-78
2022/02/28 09:09:58;;;;;;;6.60;4.50;;;7.30;99.90;;;;;;5031531;28;20664;-80
2022/02/28 09:12:24;;;;;;;4.97;3.90;;;7.40;99.90;;;;;;5032157;28;20172;-78
2022/02/28 09:14:50;;;;;;;7.65;4.22;;;7.50;99.90;;;;;;5031768;28;20202;-78
2022/02/28 09:17:16;;;;;;;6.80;4.18;;;7.50;99.90;;;;;;5030728;28;20199;-80
2022/02/28 09:19:42;;;;;;;7.78;4.65;;;7.60;99.90;;;;;;5031476;28;20191;-78
2022/02/28 09:22:08;;;;;;;12.30;5.40;;;7.40;99.90;;;;;;5029740;28;20625;-79
2022/02/28 09:24:33;;;;;;;6.28;4.43;;;7.30;99.90;;;;;;5031680;28;20207;-78
2022/02/28 09:27:03;;;;;;;7.53;4.32;;;7.30;99.90;;;;;;5030488;28;20526;-80
2022/02/28 09:29:29;;;;;;;5.35;4.22;;;7.50;99.90;;;;;;5029825;28;20187;-79
2022/02/28 09:31:57;;;;;;;5.78;4.07;;;7.70;99.90;;;;;;5028404;28;20279;-78
2022/02/28 09:34:23;;;;;;;6.50;4.47;;;7.80;99.90;;;;;;5031239;28;20207;-79
2022/02/28 09:36:51;;;;;;;5.30;4.40;;;7.70;99.90;;;;;;5031131;28;20562;-79
2022/02/28 09:39:20;;;;;;;10.30;4.60;;;7.80;99.90;;;;;;5031055;28;20172;-81
2022/02/28 09:41:47;;;;;;;7.72;4.57;;;7.90;99.90;;;;;;5030576;28;20195;-77
2022/02/28 09:44:16;;;;;;;6.18;4.90;;;7.90;99.90;;;;;;5031188;28;20190;-78
2022/02/28 09:46:43;;;;;;;10.30;4.22;;;7.90;99.90;;;;;;5031140;28;20168;-79
2022/02/28 09:49:09;;;;;;;5.55;4.97;;;8.20;99.90;;;;;;5029638;28;20200;-78
2022/02/28 09:51:35;;;;;;;6.20;4.28;;;8.30;99.90;;;;;;5030390;28;20172;-79
2022/02/28 09:54:01;;;;;;;6.40;3.92;;;8.40;99.90;;;;;;5032275;28;20192;-78
2022/02/28 09:56:27;;;;;;;7.80;4.68;;;8.50;99.90;;;;;;5031288;28;20195;-78
2022/02/28 09:58:53;;;;;;;10.88;4.75;;;8.60;99.90;;;;;;5030013;28;20191;-79
2022/02/28 10:01:19;;;;;;;11.85;4.20;;;8.60;99.90;;;;;;5031984;28;20176;-79
2022/02/28 10:03:45;;;;;;;12.05;4.50;;;8.70;99.90;;;;;;5031042;28;20164;-78
2022/02/28 10:06:11;;;;;;;9.55;4.57;;;8.80;99.90;;;;;;5031133;28;20683;-78
2022/02/28 10:08:45;;;;;;;6.95;4.60;;;8.90;99.90;;;;;;5031102;28;20214;-79
2022/02/28 10:11:30;;;;;;;8.43;5.30;;;9.00;99.90;;;;;;5029974;28;20182;-79
2022/02/28 10:13:58;;;;;;;8.10;4.45;;;9.10;99.90;;;;;;5031327;28;20542;-81
2022/02/28 10:16:49;;;;;;;22.48;4.85;;;9.10;99.90;;;;;;5028915;28;20199;-78
2022/02/28 10:19:22;;;;;;;17.15;4.90;;;9.10;99.90;;;;;;5030231;28;20540;-78
2022/02/28 10:21:49;;;;;;;6.82;5.22;;;9.00;99.90;;;;;;5031659;28;20163;-78
2022/02/28 10:24:17;;;;;;;5.30;4.68;;;9.20;99.90;;;;;;5029845;28;20187;-78
2022/02/28 10:27:00;;;;;;;8.85;4.90;;;9.30;99.90;;;;;;5031855;28;20179;-78
2022/02/28 10:29:29;;;;;;;7.38;4.53;;;9.20;99.90;;;;;;5030554;28;20213;-78
2022/02/28 10:32:01;;;;;;;5.82;4.32;;;9.30;99.90;;;;;;5031579;28;20176;-78
2022/02/28 10:34:30;;;;;;;5.72;4.25;;;9.30;99.90;;;;;;5030262;28;20200;-78
2022/02/28 10:36:58;;;;;;;8.07;4.72;;;9.30;99.90;;;;;;5030400;28;20168;-79
2022/02/28 10:40:01;;;;;;;8.70;4.68;;;9.30;99.90;;;;;;5030243;28;20570;-78
2022/02/28 10:42:53;;;;;;;7.57;5.00;;;9.30;99.90;;;;;;5031800;28;20190;-79
2022/02/28 10:45:27;;;;;;;6.53;5.13;;;9.30;99.90;;;;;;5030250;28;20306;-78
2022/02/28 10:47:54;;;;;;;9.65;4.43;;;9.40;99.90;;;;;;5029787;28;20290;-79
2022/02/28 10:50:52;;;;;;;8.55;4.78;;;9.50;99.90;;;;;;5030565;28;20632;-78
2022/02/28 10:53:21;;;;;;;9.35;4.88;;;9.40;99.90;;;;;;4989196;28;20184;-77
2022/02/28 10:55:50;;;;;;;9.43;5.15;;;9.60;99.90;;;;;;5011832;28;20196;-79
2022/02/28 10:58:18;;;;;;;6.55;4.57;;;9.70;99.90;;;;;;5011001;28;20535;-78
2022/02/28 11:00:52;;;;;;;13.73;4.63;;;9.60;99.90;;;;;;5011746;28;20183;-78
2022/02/28 11:03:18;;;;;;;9.10;5.85;;;9.70;99.90;;;;;;5012179;28;20177;-78
2022/02/28 11:05:54;;;;;;;8.63;4.70;;;9.70;99.90;;;;;;5012058;28;20195;-78
2022/02/28 11:08:21;;;;;;;6.57;4.32;;;9.70;99.90;;;;;;5023119;28;20571;-78
2022/02/28 11:10:47;;;;;;;5.00;3.20;;;9.90;99.90;;;;;;5031526;28;20164;-80
2022/02/28 11:13:14;;;;;;;5.35;4.18;;;9.90;99.90;;;;;;5031616;28;20168;-80
2022/02/28 11:15:40;;;;;;;14.18;4.88;;;9.90;99.90;;;;;;5034544;28;20192;-79
2022/02/28 11:18:10;;;;;;;9.13;4.60;;;10.00;99.90;;;;;;5034549;28;20637;-79
2022/02/28 11:20:36;;;;;;;11.98;4.22;;;10.00;99.90;;;;;;5035217;28;20175;-78
2022/02/28 11:23:04;;;;;;;12.55;4.47;;;10.20;99.90;;;;;;5034949;28;20168;-78
2022/02/28 11:25:30;;;;;;;6.88;5.18;;;10.10;99.90;;;;;;5034455;28;20191;-78
2022/02/28 11:27:58;;;;;;;8.05;4.65;;;10.00;99.90;;;;;;5034742;28;20338;-78
2022/02/28 11:30:26;;;;;;;5.90;4.13;;;10.10;99.90;;;;;;5035323;28;20664;-80
2022/02/28 11:33:01;;;;;;;8.73;3.53;;;10.00;99.90;;;;;;5034934;28;20651;-80
2022/02/28 11:35:38;;;;;;;8.13;4.18;;;9.90;99.90;;;;;;5034744;28;20183;-80
2022/02/28 11:38:14;;;;;;;6.70;4.55;;;9.80;99.90;;;;;;5034882;28;20182;-78
2022/02/28 11:40:42;;;;;;;8.07;4.88;;;9.80;99.90;;;;;;5033938;28;20250;-78
2022/02/28 11:43:14;;;;;;;17.30;5.13;;;9.90;99.90;;;;;;5034360;28;20172;-81
2022/02/28 11:45:50;;;;;;;9.18;4.90;;;9.90;99.90;;;;;;5034068;28;20691;-77
2022/02/28 11:48:52;;;;;;;7.07;4.35;;;9.70;99.90;;;;;;5034229;28;20202;-78
2022/02/28 11:51:38;;;;;;;7.82;5.05;;;9.90;99.90;;;;;;5032681;28;20178;-78
2022/02/28 11:54:23;;;;;;;15.80;4.75;;;10.00;99.90;;;;;;5033764;28;20203;-78
2022/02/28 11:56:52;;;;;;;8.52;5.05;;;10.00;99.90;;;;;;5034138;28;20190;-78
2022/02/28 11:59:19;;;;;;;13.15;4.90;;;10.00;99.90;;;;;;5034407;28;20168;-78
2022/02/28 12:01:49;;;;;;;9.32;4.97;;;10.20;99.90;;;;;;5034310;28;20171;-78
2022/02/28 12:04:38;;;;;;;7.88;4.85;;;10.20;99.90;;;;;;5034173;28;20188;-79
2022/02/28 12:07:10;;;;;;;10.35;5.20;;;10.20;99.90;;;;;;5034186;28;20535;-78
2022/02/28 12:09:41;;;;;;;5.55;4.70;;;10.10;99.90;;;;;;5034179;28;20205;-80
2022/02/28 12:12:15;;;;;;;5.05;4.40;;;10.30;99.90;;;;;;5033015;28;20214;-78
2022/02/28 12:15:03;;;;;;;7.45;5.25;;;10.20;99.90;;;;;;5033323;28;20202;-80
2022/02/28 12:17:35;;;;;;;11.93;4.63;;;10.10;99.90;;;;;;5033087;28;20190;-84
2022/02/28 12:20:20;;;;;;;8.07;4.75;;;10.20;99.90;;;;;;5032740;28;20289;-81
2022/02/28 12:22:54;;;;;;;5.32;4.82;;;10.20;99.90;;;;;;5033140;28;20175;-79
2022/02/28 12:25:29;;;;;;;7.60;4.97;;;10.20;99.90;;;;;;5031576;28;20187;-80
2022/02/28 12:27:55;;;;;;;6.10;4.88;;;10.10;99.90;;;;;;5033666;28;20198;-81
2022/02/28 12:30:45;;;;;;;11.85;5.38;;;10.10;99.90;;;;;;5033094;28;20167;-78
2022/02/28 12:33:12;;;;;;;5.40;4.00;;;10.20;99.90;;;;;;5032942;28;20172;-79
2022/02/28 12:36:09;;;;;;;10.25;4.85;;;10.30;99.90;;;;;;5032881;28;20198;-80
2022/02/28 12:38:40;;;;;;;5.53;4.47;;;10.30;99.90;;;;;;5034160;28;20321;-79
2022/02/28 12:41:11;;;;;;;7.63;4.50;;;10.40;99.90;;;;;;5034078;28;20174;-81
2022/02/28 12:43:38;;;;;;;7.05;4.20;;;10.40;99.90;;;;;;5032668;28;20652;-79
2022/02/28 12:46:09;;;;;;;7.65;5.57;;;10.60;99.90;;;;;;5033715;28;20696;-80
2022/02/28 12:48:38;;;;;;;24.92;6.07;;;10.60;99.90;;;;;;5033974;28;20283;-79
2022/02/28 12:51:06;;;;;;;6.50;5.30;;;10.60;99.90;;;;;;5033689;28;20238;-79
2022/02/28 12:53:37;;;;;;;9.48;6.10;;;10.60;99.90;;;;;;5033897;28;20192;-81
2022/02/28 12:56:04;;;;;;;6.22;4.97;;;10.60;99.90;;;;;;5033578;28;20191;-78
2022/02/28 12:58:32;;;;;;;8.10;5.40;;;10.70;99.80;;;;;;5033721;28;20589;-81